createdAt,value
2022-11-23T00:00:33.257Z,14.23
2022-11-23T00:01:56.660Z,14.57
2022-11-23T00:03:19.053Z,11.00
2022-11-23T00:04:42.434Z,14.75
2022-11-23T00:06:05.035Z,15.27
2022-11-23T00:07:28.413Z,11.68
2022-11-23T00:08:53.206Z,15.25
2022-11-23T00:10:17.189Z,13.93
2022-11-23T00:11:40.591Z,15.25
2022-11-23T00:13:03.037Z,13.48
2022-11-23T00:14:26.623Z,14.93
2022-11-23T00:15:49.063Z,12.70
2022-11-23T00:17:12.428Z,14.02
2022-11-23T00:18:35.297Z,14.68
2022-11-23T00:19:58.648Z,14.60
2022-11-23T00:21:22.400Z,10.77
2022-11-23T00:22:45.785Z,16.10
2022-11-23T00:24:12.965Z,15.98
2022-11-23T00:25:35.541Z,14.35
2022-11-23T00:26:58.998Z,15.00
2022-11-23T00:28:21.385Z,14.57
2022-11-23T00:29:44.846Z,15.02
2022-11-23T00:31:09.107Z,14.80
2022-11-23T00:32:32.634Z,13.82
2022-11-23T00:33:57.028Z,13.80
2022-11-23T00:35:19.571Z,14.57
2022-11-23T00:36:42.953Z,14.38
2022-11-23T00:38:05.397Z,15.13
2022-11-23T00:39:30.265Z,15.50
2022-11-23T00:40:59.823Z,13.18
2022-11-23T00:42:23.325Z,16.45
2022-11-23T00:43:47.208Z,15.05
2022-11-23T00:45:11.591Z,15.18
2022-11-23T00:46:35.174Z,15.30
2022-11-23T00:47:57.597Z,15.05
2022-11-23T00:49:22.157Z,15.38
2022-11-23T00:50:44.632Z,13.65
2022-11-23T00:52:08.382Z,15.00
2022-11-23T00:53:30.798Z,13.23
2022-11-23T00:54:55.567Z,12.70
2022-11-23T00:56:19.283Z,14.35
2022-11-23T00:57:41.648Z,12.93
2022-11-23T00:59:05.840Z,13.27
2022-11-23T01:00:28.259Z,14.10
2022-11-23T01:01:51.737Z,13.32
2022-11-23T01:03:14.417Z,11.20
2022-11-23T01:04:38.180Z,15.05
2022-11-23T01:06:06.750Z,15.38
2022-11-23T01:07:31.473Z,15.00
2022-11-23T01:08:56.029Z,14.25
2022-11-23T01:10:20.724Z,14.98
2022-11-23T01:11:44.325Z,15.77
2022-11-23T01:13:06.680Z,15.10
2022-11-23T01:14:30.152Z,15.88
2022-11-23T01:15:52.709Z,13.13
2022-11-23T01:17:16.083Z,15.27
2022-11-23T01:18:38.436Z,13.23
2022-11-23T01:20:01.874Z,14.45
2022-11-23T01:21:26.015Z,11.77
2022-11-23T01:22:48.441Z,15.52
2022-11-23T01:24:14.503Z,14.60
2022-11-23T01:25:38.295Z,15.63
2022-11-23T01:27:01.649Z,11.88
2022-11-23T01:28:25.445Z,14.85
2022-11-23T01:29:48.826Z,13.88
2022-11-23T01:31:14.990Z,15.48
2022-11-23T01:32:38.342Z,14.38
2022-11-23T01:34:03.000Z,10.10
2022-11-23T01:35:25.402Z,14.35
2022-11-23T01:36:48.753Z,14.40
2022-11-23T01:38:16.668Z,13.95
2022-11-23T01:39:41.495Z,13.70
2022-11-23T01:41:06.375Z,13.52
2022-11-23T01:42:45.090Z,14.90
2022-11-23T01:44:27.502Z,14.73
2022-11-23T01:46:01.707Z,14.27
2022-11-23T01:47:25.121Z,13.98
2022-11-23T01:48:51.115Z,10.98
2022-11-23T01:50:14.492Z,14.52
2022-11-23T01:51:40.457Z,16.63
2022-11-23T01:53:03.453Z,14.52
2022-11-23T01:54:29.679Z,14.02
2022-11-23T01:55:53.991Z,15.57
2022-11-23T01:57:21.189Z,13.00
2022-11-23T01:58:46.309Z,14.82
2022-11-23T02:00:09.712Z,14.45
2022-11-23T02:01:33.356Z,13.80
2022-11-23T02:02:57.974Z,13.90
2022-11-23T02:04:26.186Z,13.70
2022-11-23T02:05:53.202Z,14.60
2022-11-23T02:07:16.548Z,15.30
2022-11-23T02:08:40.585Z,13.38
2022-11-23T02:10:03.198Z,14.05
2022-11-23T02:11:26.553Z,15.65
2022-11-23T02:12:51.298Z,12.70
2022-11-23T02:14:17.873Z,15.30
2022-11-23T02:15:45.750Z,14.55
2022-11-23T02:17:08.390Z,16.13
2022-11-23T02:18:33.297Z,14.60
2022-11-23T02:20:05.561Z,13.85
2022-11-23T02:21:29.068Z,14.07
2022-11-23T02:22:59.305Z,14.05
2022-11-23T02:24:26.598Z,14.15
2022-11-23T02:25:58.547Z,13.43
2022-11-23T02:27:22.049Z,14.18
2022-11-23T02:28:46.828Z,12.73
2022-11-23T02:30:11.696Z,14.43
2022-11-23T02:31:35.240Z,12.73
2022-11-23T02:32:57.873Z,12.88
2022-11-23T02:34:21.348Z,13.48
2022-11-23T02:35:49.392Z,10.55
2022-11-23T02:37:14.030Z,12.18
2022-11-23T02:38:37.413Z,14.32
2022-11-23T02:40:01.614Z,12.52
2022-11-23T02:41:25.408Z,14.10
2022-11-23T02:42:51.042Z,11.98
2022-11-23T02:44:24.369Z,10.45
2022-11-23T02:45:51.324Z,13.13
2022-11-23T02:47:14.797Z,12.98
2022-11-23T02:48:38.534Z,14.32
2022-11-23T02:50:01.956Z,10.75
2022-11-23T02:51:24.404Z,14.45
2022-11-23T02:52:47.761Z,14.10
2022-11-23T02:54:11.484Z,11.25
2022-11-23T02:55:34.926Z,15.23
2022-11-23T02:56:59.653Z,13.52
2022-11-23T02:58:23.072Z,14.65
2022-11-23T02:59:45.474Z,15.35
2022-11-23T03:01:09.641Z,14.65
2022-11-23T03:02:33.174Z,11.30
2022-11-23T03:03:55.580Z,13.63
2022-11-23T03:05:19.106Z,12.10
2022-11-23T03:06:42.778Z,14.27
2022-11-23T03:08:06.549Z,12.63
2022-11-23T03:09:29.667Z,15.10
2022-11-23T03:10:53.235Z,11.95
2022-11-23T03:12:16.965Z,13.30
2022-11-23T03:13:40.324Z,12.80
2022-11-23T03:15:03.720Z,12.27
2022-11-23T03:16:26.362Z,12.48
2022-11-23T03:17:49.724Z,13.70
2022-11-23T03:19:12.099Z,13.32
2022-11-23T03:20:35.492Z,12.57
2022-11-23T03:21:57.921Z,14.57
2022-11-23T03:23:21.361Z,14.20
2022-11-23T03:24:44.720Z,13.30
2022-11-23T03:26:12.695Z,10.90
2022-11-23T03:27:39.597Z,12.30
2022-11-23T03:29:02.986Z,13.95
2022-11-23T03:30:26.324Z,15.38
2022-11-23T03:31:48.855Z,12.77
2022-11-23T03:33:12.457Z,13.10
2022-11-23T03:34:34.861Z,11.75
2022-11-23T03:35:58.224Z,14.05
2022-11-23T03:37:21.918Z,14.18
2022-11-23T03:38:44.428Z,13.27
2022-11-23T03:40:09.202Z,12.85
2022-11-23T03:41:31.600Z,12.65
2022-11-23T03:42:56.434Z,13.57
2022-11-23T03:44:19.874Z,12.25
2022-11-23T03:45:43.316Z,11.35
2022-11-23T03:47:06.724Z,12.23
2022-11-23T03:48:30.122Z,14.82
2022-11-23T03:49:54.443Z,12.35
2022-11-23T03:51:16.819Z,12.73
2022-11-23T03:52:40.205Z,12.43
2022-11-23T03:54:02.892Z,13.70
2022-11-23T03:55:26.358Z,10.52
2022-11-23T03:56:48.733Z,11.52
2022-11-23T03:58:15.349Z,13.52
2022-11-23T03:59:38.703Z,11.27
2022-11-23T04:01:01.161Z,13.02
2022-11-23T04:02:24.752Z,11.60
2022-11-23T04:03:47.120Z,12.55
2022-11-23T04:05:10.953Z,14.73
2022-11-23T04:06:34.518Z,13.55
2022-11-23T04:07:57.867Z,13.68
2022-11-23T04:09:21.256Z,13.07
2022-11-23T04:10:44.620Z,13.07
2022-11-23T04:12:09.596Z,12.68
2022-11-23T04:13:33.351Z,14.10
2022-11-23T04:14:56.757Z,14.70
2022-11-23T04:16:20.136Z,13.35
2022-11-23T04:17:44.026Z,13.43
2022-11-23T04:19:06.406Z,12.02
2022-11-23T04:20:29.819Z,14.63
2022-11-23T04:21:53.195Z,14.05
2022-11-23T04:23:18.026Z,13.70
2022-11-23T04:24:41.356Z,13.15
2022-11-23T04:26:07.217Z,13.77
2022-11-23T04:27:29.575Z,13.18
2022-11-23T04:28:55.223Z,14.32
2022-11-23T04:30:18.609Z,13.25
2022-11-23T04:31:41.964Z,11.40
2022-11-23T04:33:04.395Z,13.25
2022-11-23T04:34:28.084Z,12.80
2022-11-23T04:35:50.443Z,13.50
2022-11-23T04:37:13.870Z,13.15
2022-11-23T04:38:37.357Z,12.00
2022-11-23T04:40:00.760Z,12.85
2022-11-23T04:41:24.394Z,11.27
2022-11-23T04:42:46.816Z,10.95
2022-11-23T04:44:11.902Z,11.20
2022-11-23T04:45:37.254Z,9.65
2022-11-23T04:47:00.589Z,12.38
2022-11-23T04:48:24.035Z,12.98
2022-11-23T04:49:46.407Z,14.57
2022-11-23T04:51:09.897Z,12.23
2022-11-23T04:52:33.282Z,14.80
2022-11-23T04:53:55.708Z,13.75
2022-11-23T04:55:19.154Z,12.90
2022-11-23T04:56:42.542Z,12.38
2022-11-23T04:58:04.890Z,8.70
2022-11-23T04:59:29.981Z,12.88
2022-11-23T05:00:53.592Z,12.85
2022-11-23T05:02:16.144Z,11.82
2022-11-23T05:03:39.537Z,12.82
2022-11-23T05:05:01.949Z,12.38
2022-11-23T05:06:25.312Z,12.55
2022-11-23T05:07:48.698Z,14.02
2022-11-23T05:09:12.201Z,12.13
2022-11-23T05:10:35.695Z,12.48
2022-11-23T05:11:58.077Z,10.48
2022-11-23T05:13:21.482Z,13.00
2022-11-23T05:14:46.232Z,11.30
2022-11-23T05:16:09.585Z,7.40
2022-11-23T05:17:33.614Z,12.02
2022-11-23T05:18:57.005Z,12.07
2022-11-23T05:20:21.407Z,8.73
2022-11-23T05:21:44.786Z,12.07
2022-11-23T05:23:08.501Z,14.50
2022-11-23T05:24:30.979Z,12.18
2022-11-23T05:25:54.368Z,11.90
2022-11-23T05:27:16.801Z,12.65
2022-11-23T05:28:41.369Z,13.00
2022-11-23T05:30:06.675Z,13.35
2022-11-23T05:31:30.099Z,11.52
2022-11-23T05:32:53.451Z,7.75
2022-11-23T05:34:17.005Z,11.35
2022-11-23T05:35:40.424Z,11.75
2022-11-23T05:37:03.807Z,8.45
2022-11-23T05:38:27.164Z,12.88
2022-11-23T05:39:50.558Z,11.20
2022-11-23T05:41:12.999Z,11.57
2022-11-23T05:42:36.678Z,12.10
2022-11-23T05:44:00.060Z,13.02
2022-11-23T05:45:24.808Z,11.20
2022-11-23T05:46:47.297Z,11.88
2022-11-23T05:48:11.593Z,11.70
2022-11-23T05:49:35.207Z,10.27
2022-11-23T05:51:03.696Z,10.48
2022-11-23T05:52:28.780Z,11.13
2022-11-23T05:53:52.184Z,12.15
2022-11-23T05:55:17.433Z,8.65
2022-11-23T05:56:40.594Z,11.45
2022-11-23T05:58:04.161Z,10.43
2022-11-23T05:59:27.521Z,9.40
2022-11-23T06:00:52.226Z,11.98
2022-11-23T06:02:15.730Z,11.25
2022-11-23T06:03:38.287Z,6.57
2022-11-23T06:05:01.843Z,12.63
2022-11-23T06:06:25.525Z,11.95
2022-11-23T06:07:49.026Z,11.05
2022-11-23T06:09:12.809Z,11.15
2022-11-23T06:10:36.502Z,9.43
2022-11-23T06:11:59.869Z,12.15
2022-11-23T06:13:23.245Z,10.73
2022-11-23T06:14:45.669Z,12.10
2022-11-23T06:16:10.471Z,10.02
2022-11-23T06:17:33.833Z,13.05
2022-11-23T06:18:57.195Z,12.15
2022-11-23T06:20:20.607Z,11.68
2022-11-23T06:21:48.933Z,13.20
2022-11-23T06:23:13.809Z,11.15
2022-11-23T06:24:37.286Z,12.25
2022-11-23T06:26:02.010Z,11.00
2022-11-23T06:27:25.424Z,13.20
2022-11-23T06:28:49.253Z,11.60
2022-11-23T06:30:14.499Z,10.52
2022-11-23T06:31:39.234Z,12.18
2022-11-23T06:33:04.880Z,10.48
2022-11-23T06:34:28.227Z,11.75
2022-11-23T06:35:55.226Z,10.80
2022-11-23T06:37:18.590Z,10.05
2022-11-23T06:38:41.986Z,11.10
2022-11-23T06:40:05.796Z,11.82
2022-11-23T06:41:32.592Z,12.20
2022-11-23T06:43:00.021Z,11.10
2022-11-23T06:44:23.364Z,12.25
2022-11-23T06:45:46.844Z,11.50
2022-11-23T06:47:15.445Z,13.27
2022-11-23T06:48:40.616Z,11.35
2022-11-23T06:50:04.144Z,12.27
2022-11-23T06:51:27.521Z,11.73
2022-11-23T06:52:56.355Z,12.57
2022-11-23T06:54:23.279Z,12.57
2022-11-23T06:55:49.376Z,12.25
2022-11-23T06:57:12.844Z,12.93
2022-11-23T06:58:36.619Z,11.55
2022-11-23T07:00:00.010Z,12.30
2022-11-23T07:01:23.468Z,12.95
2022-11-23T07:02:52.881Z,12.02
2022-11-23T07:04:16.265Z,12.00
2022-11-23T07:05:40.639Z,12.88
2022-11-23T07:07:04.274Z,11.73
2022-11-23T07:08:28.167Z,11.10
2022-11-23T07:09:53.679Z,11.85
2022-11-23T07:11:19.999Z,11.90
2022-11-23T07:12:43.453Z,12.63
2022-11-23T07:14:06.803Z,12.18
2022-11-23T07:15:30.136Z,12.65
2022-11-23T07:16:53.573Z,12.65
2022-11-23T07:18:18.296Z,12.93
2022-11-23T07:19:41.651Z,11.75
2022-11-23T07:21:05.119Z,11.82
2022-11-23T07:22:28.488Z,12.85
2022-11-23T07:23:51.833Z,12.60
2022-11-23T07:25:18.881Z,11.18
2022-11-23T07:26:42.247Z,12.13
2022-11-23T07:28:07.095Z,12.00
2022-11-23T07:29:30.764Z,10.77
2022-11-23T07:30:54.330Z,11.05
2022-11-23T07:32:17.681Z,9.80
2022-11-23T07:33:45.476Z,10.95
2022-11-23T07:35:09.730Z,12.07
2022-11-23T07:36:33.275Z,11.90
2022-11-23T07:37:56.643Z,12.52
2022-11-23T07:39:25.425Z,11.98
2022-11-23T07:41:01.640Z,11.95
2022-11-23T07:42:33.434Z,12.20
2022-11-23T07:43:58.213Z,11.77
2022-11-23T07:45:22.959Z,13.20
2022-11-23T07:46:46.361Z,12.30
2022-11-23T07:48:10.572Z,13.05
2022-11-23T07:49:35.302Z,11.35
2022-11-23T07:50:58.744Z,11.80
2022-11-23T07:52:22.082Z,11.15
2022-11-23T07:53:45.441Z,10.35
2022-11-23T07:55:09.742Z,12.18
2022-11-23T07:56:33.370Z,10.88
2022-11-23T07:57:57.359Z,10.23
2022-11-23T07:59:19.724Z,10.32
2022-11-23T08:00:43.088Z,12.23
2022-11-23T08:02:06.863Z,11.52
2022-11-23T08:03:30.941Z,12.10
2022-11-23T08:04:55.791Z,12.13
2022-11-23T08:06:21.010Z,9.73
2022-11-23T08:07:45.054Z,10.23
2022-11-23T08:09:09.038Z,10.90
2022-11-23T08:10:32.844Z,13.25
2022-11-23T08:11:56.209Z,12.70
2022-11-23T08:13:20.343Z,12.23
2022-11-23T08:14:43.740Z,13.90
2022-11-23T08:16:07.573Z,12.80
2022-11-23T08:17:30.992Z,13.18
2022-11-23T08:18:54.377Z,13.60
2022-11-23T08:20:19.352Z,11.88
2022-11-23T08:21:42.773Z,12.25
2022-11-23T08:23:06.119Z,10.23
2022-11-23T08:24:29.944Z,9.38
2022-11-23T08:25:53.809Z,9.40
2022-11-23T08:27:17.571Z,11.77
2022-11-23T08:28:41.057Z,7.07
2022-11-23T08:30:04.909Z,12.98
2022-11-23T08:31:28.266Z,10.77
2022-11-23T08:32:51.693Z,12.27
2022-11-23T08:34:15.120Z,12.38
2022-11-23T08:35:41.785Z,12.23
2022-11-23T08:37:05.177Z,12.10
2022-11-23T08:38:28.506Z,11.32
2022-11-23T08:39:52.063Z,11.80
2022-11-23T08:41:18.180Z,11.40
2022-11-23T08:42:41.506Z,12.18
2022-11-23T08:44:04.985Z,12.02
2022-11-23T08:45:28.499Z,11.80
2022-11-23T08:46:52.360Z,11.25
2022-11-23T08:48:15.791Z,12.38
2022-11-23T08:49:39.163Z,12.43
2022-11-23T08:51:04.152Z,11.48
2022-11-23T08:52:28.205Z,11.00
2022-11-23T08:53:51.707Z,10.43
2022-11-23T08:55:15.126Z,11.57
2022-11-23T08:56:38.488Z,11.27
2022-11-23T08:58:02.097Z,10.43
2022-11-23T08:59:25.443Z,11.98
2022-11-23T09:00:48.771Z,11.45
2022-11-23T09:02:13.012Z,10.52
2022-11-23T09:03:36.361Z,10.63
2022-11-23T09:05:00.682Z,11.25
2022-11-23T09:06:29.122Z,11.25
2022-11-23T09:07:52.684Z,10.98
2022-11-23T09:09:16.079Z,11.18
2022-11-23T09:10:39.687Z,11.00
2022-11-23T09:12:03.124Z,9.60
2022-11-23T09:13:26.482Z,11.23
2022-11-23T09:14:49.961Z,12.25
2022-11-23T09:16:13.302Z,10.30
2022-11-23T09:17:36.752Z,10.98
2022-11-23T09:19:00.100Z,11.23
2022-11-23T09:20:23.584Z,10.80
2022-11-23T09:21:48.325Z,11.05
2022-11-23T09:23:14.320Z,11.20
2022-11-23T09:24:38.155Z,10.32
2022-11-23T09:26:01.931Z,10.27
2022-11-23T09:27:25.639Z,10.75
2022-11-23T09:28:49.006Z,11.52
2022-11-23T09:30:13.431Z,11.25
2022-11-23T09:31:37.444Z,10.93
2022-11-23T09:33:00.812Z,9.73
2022-11-23T09:34:24.268Z,10.73
2022-11-23T09:35:47.604Z,10.13
2022-11-23T09:37:12.326Z,11.20
2022-11-23T09:38:55.718Z,11.60
2022-11-23T09:40:19.271Z,10.60
2022-11-23T09:42:01.274Z,11.90
2022-11-23T09:43:36.443Z,11.18
2022-11-23T09:45:13.133Z,10.80
2022-11-23T09:46:42.818Z,10.30
2022-11-23T09:48:27.973Z,10.00
2022-11-23T09:49:56.085Z,10.70
2022-11-23T09:51:20.589Z,9.75
2022-11-23T09:52:48.845Z,9.48
2022-11-23T09:54:24.493Z,10.35
2022-11-23T09:55:49.427Z,9.80
2022-11-23T09:57:15.442Z,11.48
2022-11-23T09:58:41.699Z,9.63
2022-11-23T10:00:08.198Z,10.65
2022-11-23T10:01:32.052Z,9.93
2022-11-23T10:02:55.510Z,10.43
2022-11-23T10:04:20.007Z,9.38
2022-11-23T10:05:46.185Z,9.20
2022-11-23T10:07:20.399Z,9.93
2022-11-23T10:08:52.335Z,9.68
2022-11-23T10:10:27.399Z,9.85
2022-11-23T10:12:05.875Z,8.10
2022-11-23T10:13:35.602Z,8.93
2022-11-23T10:15:05.973Z,9.63
2022-11-23T10:16:34.320Z,9.75
2022-11-23T10:18:06.518Z,10.10
2022-11-23T10:19:35.894Z,8.05
2022-11-23T10:21:07.964Z,9.57
2022-11-23T10:22:36.831Z,10.00
2022-11-23T10:24:12.200Z,8.93
2022-11-23T10:25:39.751Z,8.88
2022-11-23T10:27:04.466Z,8.65
2022-11-23T10:28:31.557Z,10.00
2022-11-23T10:29:56.492Z,9.25
2022-11-23T10:31:21.654Z,9.18
2022-11-23T10:32:50.891Z,9.75
2022-11-23T10:34:15.662Z,7.65
2022-11-23T10:35:39.381Z,8.95
2022-11-23T10:37:02.755Z,8.75
2022-11-23T10:38:28.590Z,9.00
2022-11-23T10:39:53.297Z,8.77
2022-11-23T10:41:16.974Z,8.80
2022-11-23T10:42:44.698Z,8.98
2022-11-23T10:44:28.975Z,9.10
2022-11-23T10:45:55.985Z,7.68
2022-11-23T10:47:40.364Z,8.15
2022-11-23T10:49:17.896Z,8.13
2022-11-23T10:50:41.680Z,8.57
2022-11-23T10:52:07.133Z,8.07
2022-11-23T10:53:30.871Z,8.00
2022-11-23T10:54:56.934Z,9.70
2022-11-23T10:56:20.336Z,8.82
2022-11-23T10:57:44.859Z,8.70
2022-11-23T10:59:28.377Z,9.15
2022-11-23T11:01:00.512Z,8.35
2022-11-23T11:02:23.946Z,7.82
2022-11-23T11:03:47.475Z,9.10
2022-11-23T11:06:06.836Z,9.65
2022-11-23T11:07:24.851Z,8.15
2022-11-23T11:08:52.119Z,8.00
2022-11-23T11:12:03.840Z,7.75
2022-11-23T11:13:30.629Z,8.48
2022-11-23T11:15:09.640Z,8.95
2022-11-23T11:16:34.491Z,8.60
2022-11-23T11:17:59.662Z,8.75
2022-11-23T11:19:27.459Z,8.50
2022-11-23T11:20:58.274Z,9.25
2022-11-23T11:22:31.337Z,8.45
2022-11-23T11:23:56.296Z,7.38
2022-11-23T11:25:30.691Z,8.88
2022-11-23T11:26:58.924Z,8.50
2022-11-23T11:28:26.400Z,9.25
2022-11-23T11:29:51.495Z,9.05
2022-11-23T11:31:32.328Z,7.97
2022-11-23T11:33:00.870Z,8.05
2022-11-23T11:34:27.960Z,7.30
2022-11-23T11:35:54.100Z,8.07
2022-11-23T11:37:24.418Z,7.63
2022-11-23T11:39:15.080Z,8.55
2022-11-23T11:40:35.808Z,7.88
2022-11-23T11:42:01.612Z,6.75
2022-11-23T11:43:37.879Z,6.78
2022-11-23T11:45:06.368Z,8.23
2022-11-23T11:46:33.919Z,7.70
2022-11-23T11:48:01.426Z,8.80
2022-11-23T11:49:27.863Z,8.77
2022-11-23T11:50:53.507Z,8.02
2022-11-23T11:52:22.007Z,8.32
2022-11-23T11:53:49.955Z,7.25
2022-11-23T11:55:19.607Z,8.45
2022-11-23T11:56:45.310Z,8.23
2022-11-23T11:58:12.502Z,8.32
2022-11-23T11:59:43.541Z,7.95
2022-11-23T12:01:19.067Z,7.90
2022-11-23T12:02:50.227Z,8.68
2022-11-23T12:04:17.918Z,8.15
2022-11-23T12:05:45.946Z,7.85
2022-11-23T12:07:13.776Z,9.13
2022-11-23T12:08:42.145Z,9.05
2022-11-23T12:10:10.673Z,8.05
2022-11-23T12:11:34.267Z,8.90
2022-11-23T12:12:59.088Z,7.82
2022-11-23T12:14:22.617Z,8.30
2022-11-23T12:15:50.404Z,9.00
2022-11-23T12:17:33.654Z,7.38
2022-11-23T12:19:14.224Z,7.03
2022-11-23T12:20:47.203Z,8.35
2022-11-23T12:22:30.369Z,9.13
2022-11-23T12:23:59.268Z,8.43
2022-11-23T12:25:33.174Z,7.72
2022-11-23T12:27:01.917Z,8.30
2022-11-23T12:28:39.768Z,7.38
2022-11-23T12:30:21.797Z,9.25
2022-11-23T12:31:48.737Z,7.30
2022-11-23T12:33:29.183Z,7.68
2022-11-23T12:35:18.862Z,7.18
2022-11-23T12:36:53.480Z,7.57
2022-11-23T12:38:27.722Z,6.95
2022-11-23T12:40:24.528Z,8.55
2022-11-23T12:41:54.139Z,8.38
2022-11-23T12:43:23.987Z,7.78
2022-11-23T12:45:06.028Z,6.82
2022-11-23T12:46:37.089Z,7.63
2022-11-23T12:48:15.444Z,7.68
2022-11-23T12:49:44.326Z,8.70
2022-11-23T12:51:18.072Z,7.18
2022-11-23T12:52:50.869Z,7.13
2022-11-23T12:54:33.121Z,7.97
2022-11-23T12:56:04.841Z,6.47
2022-11-23T12:57:31.284Z,7.05
2022-11-23T12:58:56.134Z,7.85
2022-11-23T13:00:20.756Z,7.15
2022-11-23T13:01:47.737Z,7.43
2022-11-23T13:03:42.799Z,7.60
2022-11-23T13:05:25.815Z,7.90
2022-11-23T13:09:16.345Z,7.38
2022-11-23T13:10:59.426Z,6.57
2022-11-23T13:12:32.367Z,8.05
2022-11-23T13:14:15.178Z,8.00
2022-11-23T13:16:08.308Z,8.15
2022-11-23T13:17:38.185Z,7.78
2022-11-23T13:19:13.097Z,6.80
2022-11-23T13:20:59.681Z,6.35
2022-11-23T13:22:24.107Z,7.68
2022-11-23T13:23:47.584Z,7.25
2022-11-23T13:25:24.100Z,8.18
2022-11-23T13:26:47.472Z,7.10
2022-11-23T13:28:29.066Z,5.65
2022-11-23T13:29:58.667Z,8.32
2022-11-23T13:31:36.135Z,7.70
2022-11-23T13:33:02.930Z,7.97
2022-11-23T13:34:47.609Z,7.45
2022-11-23T13:36:16.812Z,6.95
2022-11-23T13:38:30.016Z,7.63
2022-11-23T13:40:05.836Z,7.47
2022-11-23T13:42:05.102Z,7.75
2022-11-23T13:43:30.713Z,7.43
2022-11-23T13:45:15.268Z,6.63
2022-11-23T13:46:39.217Z,6.82
2022-11-23T13:50:11.029Z,8.05
2022-11-23T13:51:36.247Z,7.38
2022-11-23T13:52:59.923Z,6.88
2022-11-23T13:54:25.136Z,8.43
2022-11-23T13:55:50.227Z,7.38
2022-11-23T13:57:15.493Z,7.53
2022-11-23T13:58:40.691Z,7.28
2022-11-23T14:00:37.731Z,6.70
2022-11-23T14:02:29.263Z,6.95
2022-11-23T14:03:55.832Z,7.05
2022-11-23T14:05:57.703Z,6.63
2022-11-23T14:07:23.065Z,6.97
2022-11-23T14:08:47.438Z,6.70
2022-11-23T14:10:20.197Z,7.00
2022-11-23T14:11:55.286Z,7.10
2022-11-23T14:13:21.846Z,7.32
2022-11-23T14:14:49.418Z,7.60
2022-11-23T14:16:15.329Z,7.70
2022-11-23T14:18:04.627Z,6.85
2022-11-23T14:19:34.482Z,7.03
2022-11-23T14:21:03.732Z,6.95
2022-11-23T14:22:33.264Z,6.75
2022-11-23T14:24:24.623Z,7.78
2022-11-23T14:25:53.930Z,8.10
2022-11-23T14:27:51.432Z,8.15
2022-11-23T14:29:35.676Z,7.53
2022-11-23T14:31:07.862Z,6.15
2022-11-23T14:32:41.505Z,7.97
2022-11-23T14:34:10.658Z,7.20
2022-11-23T14:35:40.034Z,8.07
2022-11-23T14:37:09.955Z,7.32
2022-11-23T14:39:02.220Z,7.60
2022-11-23T14:40:28.417Z,7.70
2022-11-23T14:41:53.387Z,7.25
2022-11-23T14:43:19.607Z,7.80
2022-11-23T14:44:43.947Z,7.68
2022-11-23T14:46:12.689Z,7.22
2022-11-23T14:47:36.098Z,8.15
2022-11-23T14:49:06.772Z,7.03
2022-11-23T14:50:31.476Z,7.80
2022-11-23T14:51:55.067Z,8.10
2022-11-23T14:53:18.428Z,8.27
2022-11-23T14:54:42.414Z,7.40
2022-11-23T14:56:06.294Z,8.88
2022-11-23T14:57:34.240Z,6.35
2022-11-23T14:59:02.567Z,8.52
2022-11-23T15:00:29.708Z,8.35
2022-11-23T15:01:55.185Z,7.95
2022-11-23T15:03:49.416Z,8.25
2022-11-23T15:05:08.512Z,8.57
2022-11-23T15:06:34.552Z,8.48
2022-11-23T15:08:01.186Z,8.90
2022-11-23T15:09:38.158Z,8.68
2022-11-23T15:11:06.805Z,7.85
2022-11-23T15:12:41.543Z,7.40
2022-11-23T15:14:19.813Z,8.02
2022-11-23T15:15:47.293Z,9.73
2022-11-23T15:17:18.355Z,8.90
2022-11-23T15:18:42.427Z,8.52
2022-11-23T15:20:06.558Z,8.90
2022-11-23T15:21:30.333Z,7.72
2022-11-23T15:22:53.868Z,8.82
2022-11-23T15:24:24.833Z,9.10
2022-11-23T15:25:54.167Z,8.15
2022-11-23T15:27:17.679Z,9.27
2022-11-23T15:28:41.288Z,8.40
2022-11-23T15:30:17.349Z,8.50
2022-11-23T15:31:50.477Z,8.70
2022-11-23T15:33:25.204Z,8.98
2022-11-23T15:34:49.543Z,8.45
2022-11-23T15:36:13.059Z,8.27
2022-11-23T15:37:41.519Z,8.65
2022-11-23T15:39:08.377Z,8.07
2022-11-23T15:40:33.938Z,7.45
2022-11-23T15:41:57.579Z,8.18
2022-11-23T15:43:21.666Z,6.82
2022-11-23T15:44:49.060Z,7.80
2022-11-23T15:46:15.980Z,7.43
2022-11-23T15:47:39.891Z,7.70
2022-11-23T15:49:05.211Z,8.55
2022-11-23T15:50:33.810Z,7.38
2022-11-23T15:52:01.482Z,7.88
2022-11-23T15:53:28.975Z,6.80
2022-11-23T15:54:52.495Z,6.40
2022-11-23T15:56:21.913Z,7.57
2022-11-23T15:57:45.326Z,7.00
2022-11-23T15:59:27.590Z,7.05
2022-11-23T16:00:53.074Z,7.28
2022-11-23T16:02:21.275Z,7.82
2022-11-23T16:03:52.420Z,7.20
2022-11-23T16:05:17.849Z,7.43
2022-11-23T16:06:41.917Z,6.95
2022-11-23T16:08:20.308Z,5.78
2022-11-23T16:09:52.157Z,7.30
2022-11-23T16:11:24.693Z,7.05
2022-11-23T16:12:50.217Z,8.90
2022-11-23T16:14:16.059Z,7.05
2022-11-23T16:15:44.237Z,8.25
2022-11-23T16:17:15.939Z,7.68
2022-11-23T16:18:45.044Z,7.20
2022-11-23T16:20:16.151Z,7.28
2022-11-23T16:21:46.061Z,7.80
2022-11-23T16:23:18.862Z,8.57
2022-11-23T16:24:42.348Z,8.10
2022-11-23T16:26:07.024Z,7.43
2022-11-23T16:27:30.484Z,8.35
2022-11-23T16:28:56.399Z,7.75
2022-11-23T16:30:25.919Z,8.25
2022-11-23T16:31:54.116Z,8.57
2022-11-23T16:33:18.986Z,7.82
2022-11-23T16:34:45.007Z,7.53
2022-11-23T16:36:08.881Z,7.78
2022-11-23T16:37:32.244Z,8.05
2022-11-23T16:38:58.601Z,8.90
2022-11-23T16:40:25.935Z,8.32
2022-11-23T16:41:49.362Z,7.93
2022-11-23T16:43:13.707Z,8.27
2022-11-23T16:44:41.420Z,9.38
2022-11-23T16:46:05.806Z,8.35
2022-11-23T16:47:30.605Z,8.98
2022-11-23T16:48:54.273Z,8.82
2022-11-23T16:50:18.989Z,8.73
2022-11-23T16:51:42.444Z,8.48
2022-11-23T16:53:14.195Z,6.95
2022-11-23T16:54:37.915Z,8.30
2022-11-23T16:56:01.640Z,8.23
2022-11-23T16:57:29.222Z,8.73
2022-11-23T16:58:53.120Z,8.52
2022-11-23T17:00:18.285Z,7.80
2022-11-23T17:01:43.594Z,8.20
2022-11-23T17:03:07.057Z,9.00
2022-11-23T17:04:30.552Z,7.45
2022-11-23T17:05:55.409Z,8.35
2022-11-23T17:07:18.791Z,8.27
2022-11-23T17:08:42.276Z,8.70
2022-11-23T17:10:06.520Z,9.23
2022-11-23T17:11:29.956Z,8.90
2022-11-23T17:12:54.500Z,8.07
2022-11-23T17:14:19.730Z,9.68
2022-11-23T17:15:44.112Z,9.35
2022-11-23T17:17:11.693Z,9.48
2022-11-23T17:18:35.098Z,9.57
2022-11-23T17:20:03.635Z,9.93
2022-11-23T17:21:29.109Z,8.57
2022-11-23T17:22:52.474Z,10.20
2022-11-23T17:24:16.329Z,9.45
2022-11-23T17:25:40.232Z,9.63
2022-11-23T17:27:03.629Z,9.32
2022-11-23T17:28:28.688Z,9.15
2022-11-23T17:29:57.891Z,9.35
2022-11-23T17:31:23.517Z,9.30
2022-11-23T17:32:49.767Z,9.60
2022-11-23T17:34:13.136Z,9.35
2022-11-23T17:35:38.339Z,9.95
2022-11-23T17:37:03.318Z,8.27
2022-11-23T17:38:28.269Z,9.77
2022-11-23T17:39:51.983Z,9.32
2022-11-23T17:41:15.706Z,10.02
2022-11-23T17:42:39.084Z,9.38
2022-11-23T17:44:02.474Z,9.48
2022-11-23T17:45:25.828Z,11.00
2022-11-23T17:46:49.690Z,8.40
2022-11-23T17:48:14.131Z,10.50
2022-11-23T17:49:37.592Z,9.75
2022-11-23T17:51:01.013Z,9.70
2022-11-23T17:52:26.041Z,9.70
2022-11-23T17:53:49.419Z,10.50
2022-11-23T17:55:13.788Z,9.13
2022-11-23T17:56:37.589Z,9.90
2022-11-23T17:58:01.069Z,10.50
2022-11-23T17:59:24.631Z,9.70
2022-11-23T18:00:48.123Z,9.60
2022-11-23T18:02:11.820Z,10.50
2022-11-23T18:03:35.223Z,10.50
2022-11-23T18:04:58.688Z,10.80
2022-11-23T18:06:24.190Z,10.65
2022-11-23T18:07:49.031Z,10.82
2022-11-23T18:09:12.960Z,10.38
2022-11-23T18:10:36.283Z,11.18
2022-11-23T18:11:59.705Z,9.98
2022-11-23T18:13:23.046Z,11.00
2022-11-23T18:14:46.424Z,11.48
2022-11-23T18:16:10.428Z,11.63
2022-11-23T18:17:33.865Z,10.40
2022-11-23T18:18:57.351Z,10.35
2022-11-23T18:20:21.337Z,11.98
2022-11-23T18:21:44.699Z,10.93
2022-11-23T18:23:09.515Z,10.75
2022-11-23T18:24:32.860Z,9.07
2022-11-23T18:26:03.223Z,12.18
2022-11-23T18:27:26.635Z,11.43
2022-11-23T18:28:50.845Z,11.05
2022-11-23T18:30:15.232Z,12.82
2022-11-23T18:31:38.914Z,11.20
2022-11-23T18:33:02.846Z,11.38
2022-11-23T18:34:26.682Z,10.73
2022-11-23T18:35:50.206Z,12.02
2022-11-23T18:37:13.572Z,12.30
2022-11-23T18:38:39.027Z,11.05
2022-11-23T18:40:02.668Z,11.73
2022-11-23T18:41:26.180Z,12.80
2022-11-23T18:42:49.603Z,12.57
2022-11-23T18:44:14.045Z,10.95
2022-11-23T18:45:37.440Z,12.02
2022-11-23T18:47:00.765Z,11.25
2022-11-23T18:48:24.199Z,12.43
2022-11-23T18:49:47.595Z,11.73
2022-11-23T18:51:13.183Z,12.18
2022-11-23T18:52:36.521Z,12.27
2022-11-23T18:54:01.366Z,12.57
2022-11-23T18:55:24.866Z,11.73
2022-11-23T18:56:48.557Z,12.88